Time;durP1;ratioP1;P1;durP2;ratioP2;P2;SDS_P1;SDS_P2;PMS_P1;PMS_P2;Temp;Humidity;BMP_temperature;BMP_pressure;BME280_temperature;BME280_humidity;BME280_pressure;Samples;Min_cycle;Max_cycle;Signal;HPM_P1;HPM_P2
2021/09/20 00:05:26;;;;;;;8.93;4.10;;;;;;;9.07;83.76;100772.55;20712199;83;98873;-85
2021/09/20 00:35:26;;;;;;;8.90;4.23;;;;;;;8.90;84.63;100780.58;20697192;83;99298;-84
2021/09/20 01:05:28;;;;;;;9.00;4.20;;;;;;;9.00;85.08;100778.66;20647657;83;99272;-86
2021/09/20 01:35:29;;;;;;;8.17;3.03;;;;;;;9.02;86.70;100778.31;20629123;83;99146;-85
2021/09/20 02:05:30;;;;;;;7.37;3.67;;;;;;;9.41;87.02;100779.39;20655184;83;99307;-85
2021/09/20 02:35:31;;;;;;;6.70;2.97;;;;;;;9.77;86.65;100782.28;20661434;83;99355;-86
2021/09/20 03:05:32;;;;;;;7.80;3.58;;;;;;;10.03;86.24;100783.78;20648076;84;99551;-86
2021/09/20 03:35:33;;;;;;;8.10;4.00;;;;;;;10.22;85.76;100787.31;20431730;84;100058;-86
2021/09/20 04:05:35;;;;;;;8.93;3.75;;;;;;;10.20;85.42;100769.59;20495132;83;99673;-87
2021/09/20 04:35:36;;;;;;;7.75;3.25;;;;;;;10.36;85.54;100796.41;20688453;83;99349;-86
2021/09/20 05:05:37;;;;;;;9.28;4.70;;;;;;;10.34;85.34;100816.02;20641580;83;121951;-86
2021/09/20 05:35:38;;;;;;;9.75;4.20;;;;;;;10.36;85.71;100845.92;20651457;83;99779;-88
2021/09/20 06:05:39;;;;;;;12.60;5.80;;;;;;;10.29;85.36;100849.90;20656341;83;99229;-87
2021/09/20 06:35:40;;;;;;;10.78;5.83;;;;;;;10.41;86.95;100844.25;20648555;83;99595;-88
2021/09/20 07:05:42;;;;;;;9.75;4.85;;;;;;;10.98;87.74;100885.35;20152909;85;99471;-88
2021/09/20 07:35:43;;;;;;;10.37;5.00;;;;;;;11.74;87.50;100889.11;20673460;83;99325;-88
2021/09/20 08:05:45;;;;;;;11.95;6.45;;;;;;;12.49;85.68;100922.77;20619565;83;99366;-88
2021/09/20 08:35:46;;;;;;;16.40;6.97;;;;;;;13.29;84.73;100929.67;20727515;83;99578;-87
2021/09/20 09:05:48;;;;;;;10.18;5.90;;;;;;;13.81;82.91;100945.28;20432611;84;99344;-88
2021/09/20 09:35:53;;;;;;;6.23;3.53;;;;;;;14.37;82.21;100943.41;20127106;84;99469;-88
2021/09/20 10:05:59;;;;;;;8.23;4.10;;;;;;;16.07;79.81;100949.48;20230182;85;99166;-87
2021/09/20 10:36:00;;;;;;;4.00;2.23;;;;;;;17.62;74.50;100952.36;20246367;86;99355;-88
2021/09/20 11:06:23;;;;;;;4.85;2.17;;;;;;;19.04;69.64;100953.03;20635714;83;175581;-88
2021/09/20 11:36:34;;;;;;;3.12;1.60;;;;;;;18.28;66.20;100956.42;20322725;83;99985;-86
2021/09/20 12:06:34;;;;;;;2.80;1.60;;;;;;;18.17;62.71;100967.49;20203502;84;99603;-87
2021/09/20 12:36:57;;;;;;;2.30;1.43;;;;;;;18.50;60.44;100959.17;20671024;82;99234;-87
2021/09/20 13:07:22;;;;;;;2.75;1.60;;;;;;;17.96;58.29;100960.16;20972019;82;114321;-87
2021/09/20 13:37:23;;;;;;;3.83;1.30;;;;;;;17.00;57.33;100961.97;20966895;82;99398;-87
2021/09/20 14:07:24;;;;;;;2.15;1.22;;;;;;;16.62;57.96;100992.16;20961103;82;99184;-87
2021/09/20 14:37:25;;;;;;;4.90;2.37;;;;;;;16.34;57.68;101006.91;20869775;82;99229;-89
2021/09/20 15:07:26;;;;;;;5.65;1.77;;;;;;;15.59;57.55;101024.69;20817620;82;99704;-86
2021/09/20 15:37:28;;;;;;;3.27;1.60;;;;;;;15.36;57.75;101041.69;20738007;83;99774;-88
2021/09/20 16:07:32;;;;;;;3.70;1.70;;;;;;;14.91;59.38;101062.34;20677203;83;99596;-86
2021/09/20 16:37:34;;;;;;;5.13;2.33;;;;;;;14.35;59.48;101083.66;20712206;83;99563;-86
2021/09/20 17:07:35;;;;;;;9.07;2.30;;;;;;;13.75;62.50;101109.25;20702155;83;99273;-85
2021/09/20 17:37:36;;;;;;;25.45;15.13;;;;;;;12.79;66.04;101120.97;20781055;82;99594;-85
2021/09/20 18:07:38;;;;;;;20.27;11.67;;;;;;;11.61;69.99;101147.69;20817735;82;104276;-85
2021/09/20 18:37:40;;;;;;;24.43;15.75;;;;;;;10.84;72.95;101183.89;20768272;83;99758;-85
2021/09/20 19:07:43;;;;;;;16.10;10.03;;;;;;;10.04;75.18;101202.80;20700300;83;99759;-86
2021/09/20 19:37:45;;;;;;;17.57;10.83;;;;;;;9.57;77.11;101228.04;20707484;83;99439;-85
2021/09/20 20:07:47;;;;;;;26.23;13.37;;;;;;;9.17;78.63;101229.22;20712243;83;99289;-86
2021/09/20 20:37:48;;;;;;;27.53;14.33;;;;;;;9.10;79.78;101247.66;20759322;82;108263;-85
2021/09/20 21:07:52;;;;;;;30.83;14.37;;;;;;;9.26;80.59;101272.47;20846654;82;99586;-85
2021/09/20 21:37:53;;;;;;;28.47;14.83;;;;;;;9.48;80.47;101302.16;20827882;83;99194;-85
2021/09/20 22:07:54;;;;;;;21.95;9.90;;;;;;;9.48;80.47;101302.16;20833923;82;99712;-84
2021/09/20 22:37:55;;;;;;;20.27;10.37;;;;;;;9.48;80.61;101335.14;20832020;82;98814;-85
2021/09/20 23:07:56;;;;;;;12.30;6.90;;;;;;;9.00;80.97;101356.59;20829330;83;99499;-85
2021/09/20 23:37:57;;;;;;;15.00;8.07;;;;;;;8.93;81.98;101348.69;20832910;82;101914;-85
